Terminal Aerodrome Forecast
Issued by NWS

Home | Current Version | Previous Version | Text Only | Print | Product List | Glossary On
Versions: 1 2 3 4 5 6 7 8 9 10 11 12 13 14 15 16 17 18 19 20
000
FTUS44 KLIX 260927 AAB
TAFGPT
TAF AMD
KGPT 260927Z 2609/2706 16008KT P6SM SCT015 BKN025
     FM261100 31025G35KT 2SM TSRA BKN015CB OVC030
     FM261300 30007KT 5SM -RA SCT015 BKN040 OVC070
     FM261800 16008KT P6SM VCTS SCT030CB BKN080=

USA.gov is the U.S. government's official web portal to all federal, state and local government web resources and services.